Time;durP1;ratioP1;P1;durP2;ratioP2;P2;SDS_P1;SDS_P2;PMS_P1;PMS_P2;Temp;Humidity;BMP_temperature;BMP_pressure;BME280_temperature;BME280_humidity;BME280_pressure;Samples;Min_cycle;Max_cycle;Signal;HPM_P1;HPM_P2
2022/07/22 00:00:19;;;;;;;;;;;;;;;-140.72;100.00;52478.13;5092079;28;19920;-63
2022/07/22 00:02:44;;;;;;;;;;;;;;;-140.72;100.00;52492.31;5092419;28;19920;-63
2022/07/22 00:05:10;;;;;;;;;;;;;;;-140.72;100.00;52472.03;5086012;28;19920;-65
2022/07/22 00:07:36;;;;;;;;;;;;;;;-140.72;100.00;52455.78;5107336;28;19923;-63
2022/07/22 00:10:02;;;;;;;;;;;;;;;-140.72;100.00;52498.41;5106020;28;19917;-63
2022/07/22 00:12:27;;;;;;;;;;;;;;;-140.72;100.00;52482.16;5103908;28;20368;-65
2022/07/22 00:14:52;;;;;;;;;;;;;;;-140.72;100.00;52463.91;5093153;28;19917;-64
2022/07/22 00:17:18;;;;;;;;;;;;;;;-140.72;100.00;52496.38;5103186;28;19917;-65
2022/07/22 00:19:43;;;;;;;;;;;;;;;-140.72;100.00;52449.72;5101763;28;19923;-65
2022/07/22 00:22:08;;;;;;;;;;;;;;;-140.72;100.00;52504.50;5098177;28;19920;-65
2022/07/22 00:24:33;;;;;;;;;;;;;;;-140.72;100.00;52484.19;5091465;28;19986;-65
2022/07/22 00:26:59;;;;;;;;;;;;;;;-140.72;100.00;52520.72;5088913;28;19980;-65
2022/07/22 00:29:24;;;;;;;;;;;;;;;-140.72;100.00;52498.41;5093251;28;19917;-65
2022/07/22 00:31:49;;;;;;;;;;;;;;;-140.72;100.00;52496.38;5093847;28;19920;-65
2022/07/22 00:34:14;;;;;;;;;;;;;;;-140.72;100.00;52492.31;5110289;28;19916;-65
2022/07/22 00:36:40;;;;;;;;;;;;;;;-140.72;100.00;52500.44;5103372;28;19916;-64
2022/07/22 00:39:05;;;;;;;;;;;;;;;-140.72;100.00;52488.25;5099638;28;20014;-64
2022/07/22 00:41:30;;;;;;;;;;;;;;;-140.72;100.00;52447.69;5109403;28;19928;-65
2022/07/22 00:43:55;;;;;;;;;;;;;;;-140.72;100.00;52467.97;5090708;28;19916;-65
2022/07/22 00:46:21;;;;;;;;;;;;;;;-140.72;100.00;52500.44;5093542;28;20068;-64
2022/07/22 00:48:46;;;;;;;;;;;;;;;-140.72;100.00;52488.25;5101770;28;20303;-64
2022/07/22 00:51:11;;;;;;;;;;;;;;;-140.72;100.00;52520.72;5092447;28;20232;-63
2022/07/22 00:53:37;;;;;;;;;;;;;;;-140.72;100.00;52476.09;5100647;28;19920;-63
2022/07/22 00:56:03;;;;;;;;;;;;;;;-140.72;100.00;52502.47;5091818;28;19935;-64
2022/07/22 00:58:28;;;;;;;;;;;;;;;-140.72;100.00;52494.34;5085526;28;19939;-64
2022/07/22 01:00:53;;;;;;;;;;;;;;;-140.72;100.00;52514.63;5084523;28;19917;-64
2022/07/22 01:03:18;;;;;;;;;;;;;;;-140.72;100.00;52498.41;5083731;28;20274;-66
2022/07/22 01:05:43;;;;;;;;;;;;;;;-140.72;100.00;52494.34;5083422;28;20279;-65
2022/07/22 01:08:10;;;;;;;;;;;;;;;-140.72;100.00;52480.16;5078995;28;19947;-64
2022/07/22 01:10:35;;;;;;;;;;;;;;;-140.72;100.00;52504.50;5073998;28;20019;-65
2022/07/22 01:13:00;;;;;;;;;;;;;;;-140.72;100.00;52478.13;5062564;28;19952;-65
2022/07/22 01:15:26;;;;;;;;;;;;;;;-140.72;100.00;52506.53;5082430;28;19924;-65
2022/07/22 01:17:51;;;;;;;;;;;;;;;-140.72;100.00;52498.41;5076333;28;19916;-65
2022/07/22 01:20:17;;;;;;;;;;;;;;;-140.72;100.00;52532.91;5071239;28;20004;-65
2022/07/22 01:22:44;;;;;;;;;;;;;;;-140.72;100.00;52500.44;5072565;28;20009;-65
2022/07/22 01:25:09;;;;;;;;;;;;;;;-140.72;100.00;52476.09;5076446;28;19985;-65
2022/07/22 01:27:35;;;;;;;;;;;;;;;-140.72;100.00;52524.78;5079101;28;19944;-64
2022/07/22 01:30:00;;;;;;;;;;;;;;;-140.72;100.00;52494.34;5083360;28;19941;-64
2022/07/22 01:32:25;;;;;;;;;;;;;;;-140.72;100.00;52490.28;5066513;28;20271;-64
2022/07/22 01:34:50;;;;;;;;;;;;;;;-140.72;100.00;52500.44;5077656;28;20350;-65
2022/07/22 01:37:16;;;;;;;;;;;;;;;-140.72;100.00;52520.72;5076598;28;20256;-64
2022/07/22 01:39:41;;;;;;;;;;;;;;;-140.72;100.00;52488.25;5075533;28;19916;-64
2022/07/22 01:42:06;;;;;;;;;;;;;;;-140.72;100.00;52492.31;5065406;28;19916;-65
2022/07/22 01:44:31;;;;;;;;;;;;;;;-140.72;100.00;52508.56;5076666;28;20018;-64
2022/07/22 01:46:58;;;;;;;;;;;;;;;-140.72;100.00;52524.78;5062188;28;19917;-65
2022/07/22 01:49:23;;;;;;;;;;;;;;;-140.72;100.00;52488.25;5075689;28;19997;-64
2022/07/22 01:51:49;;;;;;;;;;;;;;;-140.72;100.00;52528.84;5077259;28;19928;-64
2022/07/22 01:54:14;;;;;;;;;;;;;;;-140.72;100.00;52498.41;5086253;28;19920;-63
2022/07/22 01:56:39;;;;;;;;;;;;;;;-140.72;100.00;52496.38;5074021;28;19928;-65
2022/07/22 01:59:04;;;;;;;;;;;;;;;-140.72;100.00;52492.31;5064172;28;19921;-66
2022/07/22 02:01:29;;;;;;;;;;;;;;;-140.72;100.00;52470.00;5076107;28;19985;-64
2022/07/22 02:03:55;;;;;;;;;;;;;;;-140.72;100.00;52524.78;5077758;28;19923;-64
2022/07/22 02:06:20;;;;;;;;;;;;;;;-140.72;100.00;52472.03;5069316;28;19927;-65
2022/07/22 02:08:45;;;;;;;;;;;;;;;-140.72;100.00;52498.41;5086913;28;19920;-64
2022/07/22 02:11:10;;;;;;;;;;;;;;;-140.72;100.00;52506.53;5090681;28;20273;-66
2022/07/22 02:13:36;;;;;;;;;;;;;;;-140.72;100.00;52520.72;5091842;28;20327;-63
2022/07/22 02:16:02;;;;;;;;;;;;;;;-140.72;100.00;52472.03;5069853;28;20371;-64
2022/07/22 02:18:28;;;;;;;;;;;;;;;-140.72;100.00;52480.16;5083823;28;19916;-64
2022/07/22 02:20:53;;;;;;;;;;;;;;;-140.72;100.00;52512.59;5084124;28;19916;-64
2022/07/22 02:23:18;;;;;;;;;;;;;;;-140.72;100.00;52492.31;5081820;28;19972;-64
2022/07/22 02:25:43;;;;;;;;;;;;;;;-140.72;100.00;52514.63;5085919;28;19916;-65
2022/07/22 02:28:09;;;;;;;;;;;;;;;-140.72;100.00;52530.88;5072814;28;19948;-65
2022/07/22 02:30:34;;;;;;;;;;;;;;;-140.72;100.00;52480.16;5067601;28;19923;-65
2022/07/22 02:35:32;;;;;;;;;;;;;;;-140.72;100.00;52496.38;5077736;28;19978;-64
2022/07/22 02:37:57;;;;;;;;;;;;;;;-140.72;100.00;52488.25;5081973;28;19916;-65
2022/07/22 02:40:22;;;;;;;;;;;;;;;-140.72;100.00;52490.28;5070482;28;19916;-64
2022/07/22 02:42:48;;;;;;;;;;;;;;;-140.72;100.00;52476.09;5105227;28;20033;-64
2022/07/22 02:45:13;;;;;;;;;;;;;;;-140.72;100.00;52490.28;5101270;28;19916;-64
2022/07/22 02:47:44;;;;;;;;;;;;;;;-140.72;100.00;52484.19;5090414;28;19923;-64
2022/07/22 02:50:10;;;;;;;;;;;;;;;-140.72;100.00;52541.03;5108363;28;20872;-64
2022/07/22 02:52:35;;;;;;;;;;;;;;;-140.72;100.00;52496.38;5094737;28;20015;-64
2022/07/22 02:55:00;;;;;;;;;;;;;;;-140.72;100.00;52502.47;5093184;28;19987;-64
2022/07/22 02:57:25;;;;;;;;;;;;;;;-140.72;100.00;52504.50;5081469;28;20366;-63
2022/07/22 02:59:51;;;;;;;;;;;;;;;-140.72;100.00;52510.59;5099492;28;20514;-64
2022/07/22 03:02:16;;;;;;;;;;;;;;;-140.72;100.00;52528.84;5086244;28;19967;-63
2022/07/22 03:04:41;;;;;;;;;;;;;;;-140.72;100.00;52484.19;5088289;28;19923;-64
2022/07/22 03:07:06;;;;;;;;;;;;;;;-140.72;100.00;52555.22;5083771;28;19942;-63
2022/07/22 03:09:31;;;;;;;;;;;;;;;-140.72;100.00;52480.16;5099217;28;19970;-64
2022/07/22 03:11:57;;;;;;;;;;;;;;;-140.72;100.00;52530.88;5093761;28;20370;-64
2022/07/22 03:14:22;;;;;;;;;;;;;;;-140.72;100.00;52518.69;5094543;28;19916;-63
2022/07/22 03:16:47;;;;;;;;;;;;;;;-140.72;100.00;52522.75;5075319;28;19916;-64
2022/07/22 03:19:13;;;;;;;;;;;;;;;-140.72;100.00;52520.72;5093743;28;19924;-64
2022/07/22 03:21:38;;;;;;;;;;;;;;;-140.72;100.00;52516.66;5093495;28;19923;-64
2022/07/22 03:24:04;;;;;;;;;;;;;;;-140.72;100.00;52526.81;5092936;28;20029;-63
2022/07/22 03:26:29;;;;;;;;;;;;;;;-140.72;100.00;52518.69;5093294;28;19974;-64
2022/07/22 03:28:54;;;;;;;;;;;;;;;-140.72;100.00;52528.84;5075770;28;19923;-64
2022/07/22 03:31:19;;;;;;;;;;;;;;;-140.72;100.00;52536.97;5093415;28;20000;-64
2022/07/22 03:33:45;;;;;;;;;;;;;;;-140.72;100.00;52522.75;5093472;28;19927;-64
2022/07/22 03:36:10;;;;;;;;;;;;;;;-140.72;100.00;52504.50;5092717;28;20011;-63
2022/07/22 03:38:36;;;;;;;;;;;;;;;-140.72;100.00;52541.03;5093413;28;20318;-63
2022/07/22 03:41:01;;;;;;;;;;;;;;;-140.72;100.00;52534.94;5090589;28;19923;-64
2022/07/22 03:43:26;;;;;;;;;;;;;;;-140.72;100.00;52500.44;5093307;28;19927;-64
2022/07/22 03:45:52;;;;;;;;;;;;;;;-140.72;100.00;52543.03;5094014;28;19924;-64
2022/07/22 03:48:17;;;;;;;;;;;;;;;-140.72;100.00;52488.25;5093959;28;19923;-64
2022/07/22 03:50:42;;;;;;;;;;;;;;;-140.72;100.00;52484.19;5101263;28;19916;-64
2022/07/22 03:53:07;;;;;;;;;;;;;;;-140.72;100.00;52532.91;5093005;28;20011;-63
2022/07/22 03:55:33;;;;;;;;;;;;;;;-140.72;100.00;52490.28;5091946;28;19916;-64
2022/07/22 03:57:58;;;;;;;;;;;;;;;-140.72;100.00;52526.81;5104790;28;19916;-63
2022/07/22 04:00:23;;;;;;;;;;;;;;;-140.72;100.00;52532.91;5103518;28;20325;-64
2022/07/22 04:02:48;;;;;;;;;;;;;;;-140.72;100.00;52553.19;5105785;28;20307;-63
2022/07/22 04:05:13;;;;;;;;;;;;;;;-140.72;100.00;52496.38;5091382;28;20391;-64
2022/07/22 04:07:39;;;;;;;;;;;;;;;-140.72;100.00;52536.97;5093093;28;19924;-64
2022/07/22 04:10:04;;;;;;;;;;;;;;;-140.72;100.00;52510.59;5092920;28;20384;-63
2022/07/22 04:12:39;;;;;;;;;;;;;;;-140.72;100.00;52504.50;5092032;28;19923;-63
2022/07/22 04:15:05;;;;;;;;;;;;;;;-140.72;100.00;52488.25;5093260;28;19939;-67
2022/07/22 04:17:31;;;;;;;;;;;;;;;-140.72;100.00;52484.19;5100110;28;19922;-74
2022/07/22 04:19:57;;;;;;;;;;;;;;;-140.72;100.00;52553.19;5079755;28;19920;-71
2022/07/22 04:22:22;;;;;;;;;;;;;;;-140.72;100.00;52541.03;5080769;28;20325;-72
2022/07/22 04:24:47;;;;;;;;;;;;;;;-140.72;100.00;52526.81;5092873;28;19916;-69
2022/07/22 04:27:12;;;;;;;;;;;;;;;-140.72;100.00;52510.59;5102559;28;19916;-73
2022/07/22 04:29:37;;;;;;;;;;;;;;;-140.72;100.00;52539.00;5098589;28;19916;-73
2022/07/22 04:32:03;;;;;;;;;;;;;;;-140.72;100.00;52543.03;5100013;28;19916;-73
2022/07/22 04:34:28;;;;;;;;;;;;;;;-140.72;100.00;52492.31;5094717;28;20282;-73
2022/07/22 04:36:54;;;;;;;;;;;;;;;-140.72;100.00;52522.75;5090070;28;19928;-74
2022/07/22 04:39:21;;;;;;;;;;;;;;;-140.72;100.00;52496.38;5093032;28;20058;-75
2022/07/22 04:41:47;;;;;;;;;;;;;;;-140.72;100.00;52539.00;5095550;28;19920;-75
2022/07/22 04:44:12;;;;;;;;;;;;;;;-140.72;100.00;52514.63;5091320;28;19969;-74
2022/07/22 04:46:37;;;;;;;;;;;;;;;-140.72;100.00;52500.44;5090966;28;19959;-74
2022/07/22 04:49:02;;;;;;;;;;;;;;;-140.72;100.00;52494.34;5096154;28;20010;-74
2022/07/22 04:51:27;;;;;;;;;;;;;;;-140.72;100.00;52504.50;5083072;28;19917;-74
2022/07/22 04:53:53;;;;;;;;;;;;;;;-140.72;100.00;52474.06;5092054;28;19916;-74
2022/07/22 04:56:18;;;;;;;;;;;;;;;-140.72;100.00;52484.19;5088561;28;19923;-75
2022/07/22 04:58:43;;;;;;;;;;;;;;;-140.72;100.00;52463.91;5100958;28;19919;-75
2022/07/22 05:01:08;;;;;;;;;;;;;;;-140.72;100.00;52474.06;5105354;28;19965;-75
2022/07/22 05:03:34;;;;;;;;;;;;;;;-140.72;100.00;52492.31;5101717;28;19924;-76
2022/07/22 05:05:59;;;;;;;;;;;;;;;-140.72;100.00;52488.25;5094387;28;19927;-74
2022/07/22 05:08:25;;;;;;;;;;;;;;;-140.72;100.00;52508.56;5095770;28;20507;-73
2022/07/22 05:10:50;;;;;;;;;;;;;;;-140.72;100.00;52504.50;5096763;28;20370;-74
2022/07/22 05:13:15;;;;;;;;;;;;;;;-140.72;100.00;52467.97;5092371;28;19935;-74
2022/07/22 05:15:40;;;;;;;;;;;;;;;-140.72;100.00;52498.41;5095584;28;20639;-72
2022/07/22 05:18:05;;;;;;;;;;;;;;;-140.72;100.00;52472.03;5096014;28;19920;-74
2022/07/22 05:20:31;;;;;;;;;;;;;;;-140.72;100.00;52502.47;5098733;28;20437;-74
2022/07/22 05:22:56;;;;;;;;;;;;;;;-140.72;100.00;52514.63;5095118;28;20545;-75
2022/07/22 05:28:31;;;;;;;;;;;;;;;-140.72;100.00;52492.31;5095723;28;20412;-75
2022/07/22 05:30:56;;;;;;;;;;;;;;;-140.72;100.00;52465.94;5105670;27;19926;-75
2022/07/22 05:33:21;;;;;;;;;;;;;;;-140.72;100.00;52484.19;5092805;28;19916;-74
2022/07/22 05:35:59;;;;;;;;;;;;;;;-140.72;100.00;52486.22;5076489;28;19920;-75
2022/07/22 05:38:25;;;;;;;;;;;;;;;-140.72;100.00;52476.09;5086627;28;19916;-75
2022/07/22 05:40:50;;;;;;;;;;;;;;;-140.72;100.00;52500.44;5102145;28;19916;-75
2022/07/22 05:43:15;;;;;;;;;;;;;;;-140.72;100.00;52484.19;5095379;28;19928;-74
2022/07/22 05:45:40;;;;;;;;;;;;;;;-140.72;100.00;52470.00;5094670;28;19916;-74
2022/07/22 05:48:06;;;;;;;;;;;;;;;-140.72;100.00;52496.38;5093909;28;19920;-76
2022/07/22 05:50:31;;;;;;;;;;;;;;;-140.72;100.00;52463.91;5084127;28;19916;-76
2022/07/22 05:52:56;;;;;;;;;;;;;;;-140.72;100.00;52474.06;5102423;28;19920;-67
2022/07/22 05:55:21;;;;;;;;;;;;;;;-140.72;100.00;52496.38;5111858;28;19916;-67
2022/07/22 05:57:46;;;;;;;;;;;;;;;-140.72;100.00;52465.94;5094110;28;19928;-68
2022/07/22 06:00:12;;;;;;;;;;;;;;;-140.72;100.00;52455.78;5104425;28;19916;-66
2022/07/22 06:02:37;;;;;;;;;;;;;;;-140.72;100.00;52453.75;5104331;28;19938;-67
2022/07/22 06:05:19;;;;;;;;;;;;;;;-140.72;100.00;52433.47;5098492;28;19982;-65
2022/07/22 06:07:45;;;;;;;;;;;;;;;-140.72;100.00;52463.91;5111411;28;19916;-65
2022/07/22 06:10:10;;;;;;;;;;;;;;;-140.72;100.00;52484.19;5102193;28;19923;-65
2022/07/22 06:12:35;;;;;;;;;;;;;;;-140.72;100.00;52465.94;5100075;28;19939;-65
2022/07/22 06:15:01;;;;;;;;;;;;;;;-140.72;100.00;52478.13;5089269;28;19939;-66
2022/07/22 06:17:26;;;;;;;;;;;;;;;-140.72;100.00;52480.16;5085319;28;19942;-65
2022/07/22 06:19:51;;;;;;;;;;;;;;;-140.72;100.00;52435.50;5081603;28;19958;-65
2022/07/22 06:22:19;;;;;;;;;;;;;;;-140.72;100.00;52451.72;5093176;28;19947;-65
2022/07/22 06:24:45;;;;;;;;;;;;;;;-140.72;100.00;52415.22;5094737;28;20405;-64
2022/07/22 06:27:10;;;;;;;;;;;;;;;-140.72;100.00;52451.72;5094500;28;19924;-65
2022/07/22 06:29:36;;;;;;;;;;;;;;;-140.72;100.00;52423.31;5089800;28;19920;-65
2022/07/22 06:32:01;;;;;;;;;;;;;;;-140.72;100.00;52421.28;5085152;28;19916;-64
2022/07/22 06:34:26;;;;;;;;;;;;;;;-140.72;100.00;52425.34;5094762;28;19920;-65
2022/07/22 06:36:52;;;;;;;;;;;;;;;-140.72;100.00;52447.69;5107106;28;19990;-65
2022/07/22 06:39:17;;;;;;;;;;;;;;;-140.72;100.00;52447.69;5090633;28;20212;-66
2022/07/22 06:41:42;;;;;;;;;;;;;;;-140.72;100.00;52447.69;5096419;28;19943;-66
2022/07/22 06:44:07;;;;;;;;;;;;;;;-140.72;100.00;52415.22;5080148;28;19917;-64
2022/07/22 06:46:33;;;;;;;;;;;;;;;-140.72;100.00;52394.91;5078494;28;20314;-64
2022/07/22 06:48:58;;;;;;;;;;;;;;;-140.72;100.00;52433.47;5093503;28;19916;-64
2022/07/22 06:51:23;;;;;;;;;;;;;;;-140.72;100.00;52407.09;5087872;28;20405;-64
2022/07/22 06:53:48;;;;;;;;;;;;;;;-140.72;100.00;52435.50;5104096;28;20015;-65
2022/07/22 06:56:14;;;;;;;;;;;;;;;-140.72;100.00;52419.28;5093977;28;19916;-64
2022/07/22 06:58:39;;;;;;;;;;;;;;;-140.72;100.00;52403.03;5093230;28;19923;-64
2022/07/22 07:01:04;;;;;;;;;;;;;;;-140.72;100.00;52386.81;5094137;28;19927;-65
2022/07/22 07:03:29;;;;;;;;;;;;;;;-140.72;100.00;52388.84;5093731;28;19986;-64
2022/07/22 07:05:55;;;;;;;;;;;;;;;-140.72;100.00;52401.00;5094393;28;19916;-65
2022/07/22 07:08:20;;;;;;;;;;;;;;;-140.72;100.00;52419.28;5106612;28;19916;-68
2022/07/22 07:10:45;;;;;;;;;;;;;;;-140.72;100.00;52429.41;5115214;28;20386;-68
2022/07/22 07:13:10;;;;;;;;;;;;;;;-140.72;100.00;52368.53;5089553;28;19970;-69
2022/07/22 07:15:36;;;;;;;;;;;;;;;-140.72;100.00;52354.34;5099440;28;20370;-66
2022/07/22 07:18:01;;;;;;;;;;;;;;;-140.72;100.00;52382.75;5097385;28;19916;-68
2022/07/22 07:20:26;;;;;;;;;;;;;;;-140.72;100.00;52388.84;5092161;28;19920;-67
2022/07/22 07:22:52;;;;;;;;;;;;;;;-140.72;100.00;52405.06;5097696;28;20378;-75
2022/07/22 07:25:17;;;;;;;;;;;;;;;-140.72;100.00;52368.53;5101237;28;20381;-72
2022/07/22 07:27:42;;;;;;;;;;;;;;;-140.72;100.00;52374.63;5092076;28;19928;-72
2022/07/22 07:30:11;;;;;;;;;;;;;;;-140.72;100.00;52360.44;5080433;28;19916;-71
2022/07/22 07:32:36;;;;;;;;;;;;;;;-140.72;100.00;52362.44;5091860;28;20301;-71
2022/07/22 07:35:05;;;;;;;;;;;;;;;-140.72;100.00;52366.50;5092962;28;19920;-71
2022/07/22 07:37:31;;;;;;;;;;;;;;;-140.72;100.00;52366.50;5093317;28;19939;-72
2022/07/22 07:39:56;;;;;;;;;;;;;;;-140.72;100.00;52382.75;5099096;28;20382;-75
2022/07/22 07:42:21;;;;;;;;;;;;;;;-140.72;100.00;52384.78;5095665;28;19919;-68
2022/07/22 07:44:47;;;;;;;;;;;;;;;-140.72;100.00;52376.66;5105978;28;19916;-69
2022/07/22 07:47:17;;;;;;;;;;;;;;;-140.72;100.00;52350.28;5091564;28;19916;-69
2022/07/22 07:49:45;;;;;;;;;;;;;;;-140.72;100.00;52384.78;5093991;28;19916;-71
2022/07/22 07:52:12;;;;;;;;;;;;;;;-140.72;100.00;52366.50;5088644;28;19923;-68
2022/07/22 07:54:38;;;;;;;;;;;;;;;-140.72;100.00;52346.22;5092872;28;19939;-67
2022/07/22 07:57:04;;;;;;;;;;;;;;;-140.72;100.00;52350.28;5094549;28;19916;-74
2022/07/22 07:59:29;;;;;;;;;;;;;;;-140.72;100.00;52311.72;5079246;28;20437;-73
2022/07/22 08:01:55;;;;;;;;;;;;;;;-140.72;100.00;52338.09;5093717;28;20008;-72
2022/07/22 08:04:20;;;;;;;;;;;;;;;-140.72;100.00;52321.88;5094308;28;19916;-73
2022/07/22 08:06:45;;;;;;;;;;;;;;;-140.72;100.00;52325.94;5094074;28;19951;-73
2022/07/22 08:09:10;;;;;;;;;;;;;;;-140.72;100.00;52311.72;5086058;28;19987;-74
2022/07/22 08:11:36;;;;;;;;;;;;;;;-140.72;100.00;52346.22;5076245;28;19920;-73
2022/07/22 08:14:01;;;;;;;;;;;;;;;-140.72;100.00;52342.16;5079211;28;19917;-73
2022/07/22 08:16:26;;;;;;;;;;;;;;;-140.72;100.00;52323.91;5087450;28;19920;-73
2022/07/22 08:18:51;;;;;;;;;;;;;;;-140.72;100.00;52348.25;5087066;28;19917;-73
2022/07/22 08:21:17;;;;;;;;;;;;;;;-140.72;100.00;52303.59;5080871;28;19917;-74
2022/07/22 08:23:42;;;;;;;;;;;;;;;-140.72;100.00;52334.03;5106645;28;19916;-73
2022/07/22 08:26:08;;;;;;;;;;;;;;;-140.72;100.00;52271.16;5084047;28;20049;-73
2022/07/22 08:28:33;;;;;;;;;;;;;;;-140.72;100.00;52313.75;5084746;28;20007;-73
2022/07/22 08:30:58;;;;;;;;;;;;;;;-140.72;100.00;52297.53;5089474;28;19923;-73
2022/07/22 08:33:23;;;;;;;;;;;;;;;-140.72;100.00;52301.59;5089184;28;20051;-73
2022/07/22 08:35:49;;;;;;;;;;;;;;;-140.72;100.00;52297.53;5086931;28;19916;-73
2022/07/22 08:38:14;;;;;;;;;;;;;;;-140.72;100.00;52332.03;5098404;28;19961;-72
2022/07/22 08:40:39;;;;;;;;;;;;;;;-140.72;100.00;52303.59;5097677;28;20401;-72
2022/07/22 08:43:04;;;;;;;;;;;;;;;-140.72;100.00;52344.19;5092244;28;20276;-71
2022/07/22 08:45:30;;;;;;;;;;;;;;;-140.72;100.00;52330.00;5096487;28;20011;-71
2022/07/22 08:47:55;;;;;;;;;;;;;;;-140.72;100.00;52330.00;5091997;28;19951;-72
2022/07/22 08:50:21;;;;;;;;;;;;;;;-140.72;100.00;52275.19;5091182;28;19920;-72
2022/07/22 08:52:46;;;;;;;;;;;;;;;-140.72;100.00;52325.94;5087685;28;19920;-72
2022/07/22 08:55:11;;;;;;;;;;;;;;;-140.72;100.00;52362.44;5095216;28;19920;-71
2022/07/22 08:57:37;;;;;;;;;;;;;;;-140.72;100.00;52396.94;5096531;28;19916;-72
2022/07/22 09:00:08;;;;;;;;;;;;;;;-140.72;100.00;52346.22;5094800;28;19967;-72
2022/07/22 09:02:37;;;;;;;;;;;;;;;-140.72;100.00;52354.34;5093806;28;19922;-72
2022/07/22 09:05:05;;;;;;;;;;;;;;;-140.72;100.00;52334.03;5095856;28;19916;-71
2022/07/22 09:07:34;;;;;;;;;;;;;;;-140.72;100.00;52358.41;5094406;28;19963;-72
2022/07/22 09:10:00;;;;;;;;;;;;;;;-140.72;100.00;52289.41;5092642;28;20001;-71
2022/07/22 09:12:27;;;;;;;;;;;;;;;-140.72;100.00;52334.03;5089160;28;20322;-73
2022/07/22 09:14:56;;;;;;;;;;;;;;;-140.72;100.00;52295.50;5083674;28;20017;-73
2022/07/22 09:17:35;;;;;;;;;;;;;;;-140.72;100.00;52309.69;5096108;28;19917;-77
2022/07/22 09:20:02;;;;;;;;;;;;;;;-140.72;100.00;52297.53;5093658;28;20342;-72
2022/07/22 09:22:35;;;;;;;;;;;;;;;-140.72;100.00;52321.88;5100261;28;19951;-72
2022/07/22 09:25:39;;;;;;;;;;;;;;;-140.72;100.00;52273.19;5091163;28;19916;-73
2022/07/22 09:28:07;;;;;;;;;;;;;;;-140.72;100.00;52212.31;5034230;28;19959;-72
2022/07/22 09:30:37;;;;;;;;;;;;;;;-140.72;100.00;52220.41;5035766;28;19965;-72
2022/07/22 09:33:02;;;;;;;;;;;;;;;-140.72;100.00;52240.72;5064210;28;19916;-72
2022/07/22 09:35:28;;;;;;;;;;;;;;;-140.72;100.00;52269.13;5095436;28;19943;-71
2022/07/22 09:38:01;;;;;;;;;;;;;;;-140.72;100.00;52254.91;5090787;28;19917;-71
2022/07/22 09:40:31;;;;;;;;;;;;;;;-140.72;100.00;52309.69;5083704;28;19927;-70
2022/07/22 09:42:57;;;;;;;;;;;;;;;-140.72;100.00;52313.75;5090789;28;19924;-71
2022/07/22 09:45:24;;;;;;;;;;;;;;;-140.72;100.00;52283.31;5090099;28;19969;-71
2022/07/22 09:47:50;;;;;;;;;;;;;;;-140.72;100.00;52265.06;5084604;28;19959;-71
2022/07/22 09:50:18;;;;;;;;;;;;;;;-140.72;100.00;52187.97;5091744;28;20413;-72
2022/07/22 09:52:43;;;;;;;;;;;;;;;-140.72;100.00;52192.00;5095450;28;19916;-72
2022/07/22 09:55:09;;;;;;;;;;;;;;;-140.72;100.00;52187.97;5105631;28;19965;-70
2022/07/22 09:57:34;;;;;;;;;;;;;;;-140.72;100.00;52194.03;5093305;28;20394;-72
2022/07/22 09:59:59;;;;;;;;;;;;;;;-140.72;100.00;52185.94;5093924;28;20061;-73
2022/07/22 10:02:26;;;;;;;;;;;;;;;-140.72;100.00;52078.38;5094130;28;19916;-73
2022/07/22 10:04:53;;;;;;;;;;;;;;;-140.72;100.00;52066.22;5095200;28;19943;-71
2022/07/22 10:07:19;;;;;;;;;;;;;;;-140.72;100.00;51999.25;5086917;28;19928;-72
2022/07/22 10:09:45;;;;;;;;;;;;;;;-140.72;100.00;52052.00;5086984;28;19969;-71
2022/07/22 10:12:11;;;;;;;;;;;;;;;-140.72;100.00;52106.78;5090933;28;19943;-70
2022/07/22 10:14:37;;;;;;;;;;;;;;;-140.72;100.00;52110.84;5094605;28;19935;-71
2022/07/22 10:17:03;;;;;;;;;;;;;;;-140.72;100.00;52112.88;5095186;28;19920;-71
2022/07/22 10:19:28;;;;;;;;;;;;;;;-140.72;100.00;52163.59;5093357;28;19923;-72
2022/07/22 10:21:53;;;;;;;;;;;;;;;-140.72;100.00;52139.25;5092378;28;20016;-70
2022/07/22 10:24:23;;;;;;;;;;;;;;;-140.72;100.00;52167.66;5091659;28;19923;-70
2022/07/22 10:26:53;;;;;;;;;;;;;;;-140.72;100.00;52161.56;5084820;28;19927;-71
2022/07/22 10:29:27;;;;;;;;;;;;;;;-140.72;100.00;52167.66;5088738;28;19969;-70
2022/07/22 10:32:11;;;;;;;;;;;;;;;-140.72;100.00;52179.84;5102554;28;19915;-71
2022/07/22 10:34:37;;;;;;;;;;;;;;;-140.72;100.00;52220.41;5089526;28;19923;-71
2022/07/22 10:37:02;;;;;;;;;;;;;;;-140.72;100.00;52200.13;5092076;28;19962;-71
2022/07/22 10:39:27;;;;;;;;;;;;;;;-140.72;100.00;52228.53;5092115;28;19916;-71
2022/07/22 10:41:52;;;;;;;;;;;;;;;-140.72;100.00;52238.69;5092955;28;20299;-70
2022/07/22 10:44:37;;;;;;;;;;;;;;;-140.72;100.00;52261.00;5101834;28;20309;-74
2022/07/22 10:47:03;;;;;;;;;;;;;;;-140.72;100.00;52269.13;5102817;28;20362;-71
2022/07/22 10:49:28;;;;;;;;;;;;;;;-140.72;100.00;52267.09;5089325;28;20014;-72
2022/07/22 10:52:05;;;;;;;;;;;;;;;-140.72;100.00;52289.41;5089287;28;19916;-73
2022/07/22 10:54:31;;;;;;;;;;;;;;;-140.72;100.00;52204.19;5091773;28;19923;-72
2022/07/22 10:56:56;;;;;;;;;;;;;;;-140.72;100.00;52289.41;5090817;28;19920;-72
2022/07/22 10:59:23;;;;;;;;;;;;;;;-140.72;100.00;52269.13;5095953;28;20006;-70
2022/07/22 11:01:50;;;;;;;;;;;;;;;-140.72;100.00;52068.25;5097609;28;19916;-68
2022/07/22 11:04:21;;;;;;;;;;;;;;;-140.72;100.00;52041.88;5099283;28;19983;-68
2022/07/22 11:06:47;;;;;;;;;;;;;;;-140.72;100.00;52029.69;5107666;28;19924;-66
2022/07/22 11:09:13;;;;;;;;;;;;;;;-140.72;100.00;51940.41;5102000;28;20059;-65
2022/07/22 11:11:46;;;;;;;;;;;;;;;-140.72;100.00;52003.31;5115455;28;19916;-65
2022/07/22 11:14:12;;;;;;;;;;;;;;;-140.72;100.00;51958.69;5097157;28;19920;-66
2022/07/22 11:16:38;;;;;;;;;;;;;;;-140.72;100.00;51867.38;5097596;28;19951;-68
2022/07/22 11:19:03;;;;;;;;;;;;;;;-140.72;100.00;51881.59;5088105;28;19923;-66
2022/07/22 11:21:29;;;;;;;;;;;;;;;-140.72;100.00;51987.09;5090266;28;19919;-66
2022/07/22 11:23:56;;;;;;;;;;;;;;;-140.72;100.00;52078.38;5098840;28;19916;-67
2022/07/22 11:26:28;;;;;;;;;;;;;;;-140.72;100.00;52161.56;5093206;28;20019;-65
2022/07/22 11:28:54;;;;;;;;;;;;;;;-140.72;100.00;52159.56;5093205;28;19950;-70
2022/07/22 11:31:19;;;;;;;;;;;;;;;-140.72;100.00;52159.56;5086679;28;20011;-69
2022/07/22 11:33:45;;;;;;;;;;;;;;;-140.72;100.00;52157.53;5092834;28;20386;-67
2022/07/22 11:36:11;;;;;;;;;;;;;;;-140.72;100.00;52037.81;5094340;28;19920;-65
2022/07/22 11:38:49;;;;;;;;;;;;;;;-140.72;100.00;52045.94;5090521;28;19920;-66
2022/07/22 11:41:16;;;;;;;;;;;;;;;-140.72;100.00;52088.53;5089799;28;19916;-67
2022/07/22 11:43:48;;;;;;;;;;;;;;;-140.72;100.00;52135.19;5106918;28;20267;-66
2022/07/22 11:46:14;;;;;;;;;;;;;;;-140.72;100.00;52179.84;5093136;28;19920;-67
2022/07/22 11:48:41;;;;;;;;;;;;;;;-140.72;100.00;52185.94;5079299;28;19916;-67
2022/07/22 11:51:07;;;;;;;;;;;;;;;-140.72;100.00;52153.47;5094203;28;19926;-65
2022/07/22 11:53:33;;;;;;;;;;;;;;;-140.72;100.00;52106.78;5094348;28;19916;-66
2022/07/22 11:56:02;;;;;;;;;;;;;;;-140.72;100.00;52086.50;5105760;28;19922;-67
2022/07/22 11:58:33;;;;;;;;;;;;;;;-140.72;100.00;52074.34;5074139;28;20260;-66
2022/07/22 12:00:58;;;;;;;;;;;;;;;-140.72;100.00;52029.69;5090898;28;19916;-65
2022/07/22 12:03:24;;;;;;;;;;;;;;;-140.72;100.00;52035.78;5094449;28;20272;-66
2022/07/22 12:05:50;;;;;;;;;;;;;;;-140.72;100.00;51987.09;5094406;28;20384;-66
2022/07/22 12:08:16;;;;;;;;;;;;;;;-140.72;100.00;52037.81;5090954;28;19920;-65
2022/07/22 12:10:42;;;;;;;;;;;;;;;-140.72;100.00;52019.56;5083670;28;19947;-66
2022/07/22 12:13:10;;;;;;;;;;;;;;;-140.72;100.00;52106.78;5094865;28;19920;-65
2022/07/22 12:15:35;;;;;;;;;;;;;;;-140.72;100.00;52163.59;5089965;28;19916;-65
2022/07/22 12:18:15;;;;;;;;;;;;;;;-140.72;100.00;52151.44;5093442;28;19985;-67